Time;durP1;ratioP1;P1;durP2;ratioP2;P2;SDS_P1;SDS_P2;PMS_P1;PMS_P2;Temp;Humidity;BMP_temperature;BMP_pressure;BME280_temperature;BME280_humidity;BME280_pressure;Samples;Min_cycle;Max_cycle;Signal;HPM_P1;HPM_P2
2022/02/05 00:02:18;;;;;;;4.45;2.00;;;2.40;98.00;;;;;;5047466;28;20326;-68
2022/02/05 00:04:45;;;;;;;4.10;2.10;;;2.40;98.00;;;;;;5043888;28;20083;-69
2022/02/05 00:07:11;;;;;;;3.85;1.80;;;2.40;98.00;;;;;;5056195;28;20021;-68
2022/02/05 00:33:16;;;;;;;4.65;2.58;;;2.40;98.00;;;;;;5038761;28;20060;-67
2022/02/05 00:39:29;;;;;;;6.38;2.60;;;2.40;98.00;;;;;;5048000;28;20075;-68
2022/02/05 00:42:09;;;;;;;6.28;2.90;;;2.40;98.00;;;;;;5057246;28;20025;-68
2022/02/05 00:44:35;;;;;;;6.32;2.92;;;2.40;98.00;;;;;;5047585;28;20048;-68
2022/02/05 00:47:01;;;;;;;5.97;2.92;;;2.40;98.00;;;;;;5042693;28;20033;-69
2022/02/05 00:49:27;;;;;;;7.72;3.10;;;2.40;98.00;;;;;;5043004;28;20017;-68
2022/02/05 00:52:00;;;;;;;7.63;3.72;;;2.30;98.00;;;;;;5057758;28;20036;-68
2022/02/05 00:54:27;;;;;;;7.72;3.90;;;2.20;98.00;;;;;;5053884;28;20078;-67
2022/02/05 00:59:27;;;;;;;7.57;3.67;;;2.00;98.00;;;;;;5042733;28;20036;-68
2022/02/05 01:01:53;;;;;;;4.88;2.78;;;1.90;98.00;;;;;;5050999;28;20432;-68
2022/02/05 01:04:19;;;;;;;4.93;3.00;;;1.80;98.00;;;;;;5043410;28;20048;-69
2022/02/05 01:06:45;;;;;;;5.32;3.28;;;1.70;98.00;;;;;;5039036;28;20021;-68
2022/02/05 01:09:18;;;;;;;5.35;2.83;;;1.60;98.00;;;;;;5038728;28;20029;-68
2022/02/05 01:11:45;;;;;;;5.95;2.90;;;1.50;98.00;;;;;;5041040;28;20291;-68
2022/02/05 01:14:14;;;;;;;4.95;2.80;;;1.40;98.00;;;;;;5055963;28;20031;-68
2022/02/05 01:16:54;;;;;;;6.03;3.00;;;1.40;98.00;;;;;;5042203;28;20033;-68
2022/02/05 01:19:53;;;;;;;4.32;2.80;;;1.30;98.00;;;;;;5043034;28;20048;-68
2022/02/05 01:22:15;;;;;;;;;;;1.30;98.00;;;;;;5045543;28;20409;-68
2022/02/05 01:24:43;;;;;;;5.25;2.80;;;1.20;98.00;;;;;;5046431;28;20325;-68
2022/02/05 01:27:15;;;;;;;5.97;2.85;;;1.10;98.00;;;;;;5045362;28;20030;-67
2022/02/05 01:32:15;;;;;;;5.78;3.05;;;1.10;98.00;;;;;;5036383;28;20193;-69
2022/02/05 01:34:55;;;;;;;7.07;3.28;;;1.10;98.00;;;;;;5037467;28;20520;-68
2022/02/05 01:51:37;;;;;;;6.03;3.10;;;0.90;98.00;;;;;;5039276;28;20383;-68
2022/02/05 01:56:53;;;;;;;5.72;3.10;;;1.00;98.00;;;;;;5038379;28;20311;-68
2022/02/05 01:59:52;;;;;;;5.43;2.90;;;1.10;98.00;;;;;;5041299;28;20021;-68
2022/02/05 02:05:07;;;;;;;7.05;3.22;;;1.20;98.00;;;;;;5050082;28;20040;-68
2022/02/05 02:10:50;;;;;;;7.88;3.15;;;1.20;98.00;;;;;;5038261;28;20052;-67
2022/02/05 02:18:25;;;;;;;8.65;2.88;;;1.10;98.00;;;;;;5040276;28;20024;-69
2022/02/05 02:26:08;;;;;;;7.13;3.05;;;1.00;98.00;;;;;;5037488;28;20049;-68
2022/02/05 02:31:19;;;;;;;5.68;3.13;;;0.80;98.00;;;;;;5051217;28;20082;-68
2022/02/05 02:33:49;;;;;;;8.57;3.25;;;0.70;98.00;;;;;;5051570;28;20036;-68
2022/02/05 02:36:27;;;;;;;8.23;3.25;;;0.50;98.00;;;;;;5040943;28;20083;-68
2022/02/05 02:38:57;;;;;;;8.95;3.00;;;0.30;98.00;;;;;;5047974;28;20362;-68
2022/02/05 02:41:29;;;;;;;6.05;3.13;;;0.20;98.00;;;;;;5037292;28;20066;-67
2022/02/05 02:43:54;;;;;;;6.45;3.38;;;0.10;98.00;;;;;;5043567;28;20017;-68
2022/02/05 02:46:21;;;;;;;7.55;3.65;;;0.00;98.00;;;;;;5040799;28;20048;-68
2022/02/05 02:48:49;;;;;;;8.07;3.20;;;-0.10;98.00;;;;;;5046405;28;20092;-68
2022/02/05 02:57:20;;;;;;;6.90;3.20;;;-0.40;98.00;;;;;;5050186;28;20087;-68
2022/02/05 02:59:49;;;;;;;6.35;3.42;;;-0.40;98.00;;;;;;5050209;28;20419;-68
2022/02/05 03:02:18;;;;;;;5.60;3.60;;;-0.40;98.00;;;;;;5037809;28;20033;-68
2022/02/05 03:04:44;;;;;;;8.02;3.85;;;-0.30;98.00;;;;;;5037297;28;20029;-68
2022/02/05 03:07:10;;;;;;;6.18;3.58;;;-0.40;98.00;;;;;;5052766;28;20089;-68
2022/02/05 03:09:36;;;;;;;8.50;3.22;;;-0.50;98.00;;;;;;5053837;28;20130;-68
2022/02/05 03:12:02;;;;;;;8.43;3.60;;;-0.60;98.00;;;;;;5048339;28;20057;-69
2022/02/05 03:14:28;;;;;;;8.35;3.33;;;-0.70;98.00;;;;;;5053402;28;20078;-68
2022/02/05 03:17:02;;;;;;;8.15;3.70;;;-0.70;98.00;;;;;;5040183;28;20096;-68
2022/02/05 03:19:28;;;;;;;11.45;4.03;;;-0.80;98.00;;;;;;5036814;28;20020;-68
2022/02/05 03:21:53;;;;;;;6.07;3.95;;;-0.80;98.00;;;;;;5041834;28;20033;-68
2022/02/05 03:24:19;;;;;;;6.40;3.88;;;-0.80;98.00;;;;;;5044500;28;20441;-68
2022/02/05 03:26:44;;;;;;;6.20;3.78;;;-0.80;98.00;;;;;;5051789;28;20040;-68
2022/02/05 03:29:12;;;;;;;12.38;4.57;;;-0.80;98.00;;;;;;5051865;28;20030;-68
2022/02/05 03:31:38;;;;;;;7.55;3.75;;;-0.90;98.00;;;;;;5047614;28;20052;-68
2022/02/05 03:34:05;;;;;;;11.52;4.28;;;-1.00;98.00;;;;;;5044370;28;20064;-68
2022/02/05 03:36:32;;;;;;;9.82;4.35;;;-0.90;98.00;;;;;;5050410;28;20024;-68
2022/02/05 03:38:58;;;;;;;6.03;3.95;;;-0.90;98.00;;;;;;5048807;28;20031;-68
2022/02/05 03:41:24;;;;;;;6.72;4.03;;;-0.80;98.00;;;;;;5059060;28;20460;-67
2022/02/05 03:43:50;;;;;;;7.78;4.10;;;-0.80;98.00;;;;;;5053084;28;20034;-68
2022/02/05 03:46:15;;;;;;;9.55;4.30;;;-0.90;98.00;;;;;;5055469;28;20024;-68
2022/02/05 03:48:41;;;;;;;8.13;4.63;;;-1.00;98.00;;;;;;5053541;28;20084;-66
2022/02/05 03:51:06;;;;;;;9.55;5.53;;;-1.10;98.00;;;;;;5040953;28;20025;-68
2022/02/05 03:53:32;;;;;;;9.18;4.35;;;-1.10;98.00;;;;;;5040517;28;20026;-69
2022/02/05 03:55:58;;;;;;;10.10;5.10;;;-1.20;98.00;;;;;;5044228;28;20028;-68
2022/02/05 03:58:23;;;;;;;21.70;7.03;;;-1.20;98.00;;;;;;5045570;28;20017;-68
2022/02/05 04:00:49;;;;;;;9.60;4.60;;;-1.10;98.00;;;;;;5040759;28;20414;-68
2022/02/05 04:03:17;;;;;;;9.63;5.22;;;-1.20;98.00;;;;;;5053545;28;20337;-68
2022/02/05 04:05:43;;;;;;;7.20;4.82;;;-1.30;98.00;;;;;;5051160;28;20078;-68
2022/02/05 04:08:11;;;;;;;9.90;5.15;;;-1.30;98.00;;;;;;5041114;28;20433;-68
2022/02/05 04:10:45;;;;;;;10.20;4.90;;;-1.30;98.00;;;;;;5041073;28;20021;-67
2022/02/05 04:16:11;;;;;;;11.63;4.88;;;-1.40;98.00;;;;;;5043673;28;20051;-67
2022/02/05 04:18:37;;;;;;;9.70;4.30;;;-1.30;98.00;;;;;;5041118;28;20047;-67
2022/02/05 04:21:04;;;;;;;8.65;4.35;;;-1.30;98.00;;;;;;5040103;28;20026;-67
2022/02/05 04:23:30;;;;;;;15.02;5.07;;;-1.30;98.00;;;;;;5039784;28;20033;-66
2022/02/05 04:25:56;;;;;;;13.80;4.85;;;-1.20;98.00;;;;;;5043088;28;20053;-67
2022/02/05 04:28:22;;;;;;;7.03;4.50;;;-1.20;98.00;;;;;;5048564;28;20041;-68
2022/02/05 04:30:48;;;;;;;9.07;5.00;;;-1.10;98.00;;;;;;5051320;28;20029;-70
2022/02/05 04:33:14;;;;;;;9.30;5.13;;;-1.10;98.00;;;;;;5045143;28;20033;-67
2022/02/05 04:35:43;;;;;;;10.13;4.63;;;-1.10;98.00;;;;;;5048951;28;20030;-69
2022/02/05 04:38:09;;;;;;;9.40;5.32;;;-1.10;98.00;;;;;;5051264;28;20116;-67
2022/02/05 04:40:41;;;;;;;10.20;5.43;;;-1.00;98.00;;;;;;5040459;28;20110;-67
2022/02/05 04:43:18;;;;;;;14.25;6.30;;;-1.00;98.00;;;;;;5037953;28;20037;-67
2022/02/05 04:51:17;;;;;;;9.30;4.53;;;-0.60;98.00;;;;;;5042330;28;20036;-67
2022/02/05 05:09:37;;;;;;;11.25;4.50;;;0.20;98.00;;;;;;5040246;28;20041;-66
2022/02/05 05:20:17;;;;;;;8.75;4.20;;;0.30;98.00;;;;;;5050155;28;20032;-68
2022/02/05 05:22:46;;;;;;;13.35;4.28;;;0.30;98.00;;;;;;5037687;28;20029;-68
2022/02/05 05:25:14;;;;;;;10.45;3.88;;;0.30;98.00;;;;;;5040865;28;20057;-68
2022/02/05 05:27:40;;;;;;;10.15;3.97;;;0.30;98.00;;;;;;5049213;28;20024;-68
2022/02/05 05:30:07;;;;;;;11.10;4.53;;;0.40;98.00;;;;;;5044248;28;20036;-68
2022/02/05 05:32:33;;;;;;;7.90;4.22;;;0.30;98.00;;;;;;5035416;28;20033;-67
2022/02/05 05:35:02;;;;;;;11.15;3.90;;;0.30;98.00;;;;;;5052312;28;20036;-67
2022/02/05 05:37:28;;;;;;;9.65;3.95;;;0.30;98.00;;;;;;5057555;28;20413;-67
2022/02/05 05:39:56;;;;;;;6.70;3.00;;;0.40;98.00;;;;;;5054288;28;20033;-68
2022/02/05 05:42:26;;;;;;;8.82;3.30;;;0.40;98.00;;;;;;5045494;28;20083;-67
2022/02/05 05:45:04;;;;;;;10.95;3.42;;;0.40;98.00;;;;;;5038464;28;20029;-67
2022/02/05 05:47:35;;;;;;;9.63;3.38;;;0.40;98.00;;;;;;5036284;28;20369;-68
2022/02/05 05:50:10;;;;;;;12.10;4.30;;;0.50;98.00;;;;;;5046945;28;20368;-67
2022/02/05 05:52:36;;;;;;;10.07;3.70;;;0.50;98.00;;;;;;5043094;28;20055;-67
2022/02/05 05:55:03;;;;;;;6.38;2.90;;;0.40;98.00;;;;;;5049992;28;20018;-68
2022/02/05 05:57:29;;;;;;;7.85;3.60;;;0.40;98.00;;;;;;5048531;28;20024;-68
2022/02/05 05:59:55;;;;;;;9.07;2.92;;;0.50;98.00;;;;;;5052073;28;20028;-67
2022/02/05 06:02:21;;;;;;;7.03;2.90;;;0.50;98.00;;;;;;5044872;28;20467;-67
2022/02/05 06:04:46;;;;;;;5.72;2.67;;;0.40;98.00;;;;;;5052127;28;20060;-68
2022/02/05 06:07:12;;;;;;;8.98;3.03;;;0.40;98.00;;;;;;5058798;28;20032;-67
2022/02/05 06:09:42;;;;;;;14.05;2.88;;;0.40;98.00;;;;;;5057360;28;20036;-67
2022/02/05 06:12:10;;;;;;;5.18;2.55;;;0.40;98.00;;;;;;5055893;28;20060;-67
2022/02/05 06:14:35;;;;;;;5.72;2.75;;;0.40;98.00;;;;;;5046505;28;20056;-67
2022/02/05 06:17:07;;;;;;;6.57;3.08;;;0.50;98.00;;;;;;5052765;28;20061;-67
2022/02/05 06:19:33;;;;;;;6.28;2.55;;;0.60;98.00;;;;;;5038053;28;20017;-67
2022/02/05 06:22:01;;;;;;;7.43;3.38;;;0.50;98.00;;;;;;5040704;28;20107;-67
2022/02/05 06:24:27;;;;;;;7.25;2.50;;;0.40;98.00;;;;;;5046609;28;20492;-67
2022/02/05 06:26:55;;;;;;;6.38;2.60;;;0.40;98.00;;;;;;5049736;28;20028;-67
2022/02/05 06:29:21;;;;;;;6.28;2.92;;;0.30;98.00;;;;;;5050837;28;20038;-67
2022/02/05 06:31:47;;;;;;;6.72;3.03;;;0.20;98.00;;;;;;5047272;28;20042;-68
2022/02/05 06:34:12;;;;;;;7.63;2.30;;;0.30;98.00;;;;;;5036433;28;20025;-67
2022/02/05 06:36:38;;;;;;;7.35;2.63;;;0.20;98.00;;;;;;5042290;28;20025;-68
2022/02/05 06:39:04;;;;;;;9.90;3.08;;;0.20;98.00;;;;;;5037218;28;20026;-67
2022/02/05 06:41:30;;;;;;;8.75;3.92;;;0.20;98.00;;;;;;5037153;28;20053;-67
2022/02/05 06:43:55;;;;;;;7.25;3.63;;;0.10;98.00;;;;;;5064467;28;20122;-67
2022/02/05 06:46:21;;;;;;;6.72;3.15;;;0.00;98.00;;;;;;5044932;28;20053;-67
2022/02/05 06:48:46;;;;;;;8.23;3.20;;;0.00;98.00;;;;;;5054672;28;20424;-68
2022/02/05 06:51:12;;;;;;;9.50;3.22;;;0.10;98.00;;;;;;5053073;28;20035;-67
2022/02/05 06:53:39;;;;;;;7.05;3.05;;;0.00;98.00;;;;;;5037317;28;20025;-68
2022/02/05 06:56:04;;;;;;;7.65;3.90;;;0.00;98.00;;;;;;5045113;28;20028;-67
2022/02/05 06:58:30;;;;;;;14.43;3.47;;;0.10;98.00;;;;;;5044405;28;20038;-67
2022/02/05 07:00:55;;;;;;;6.88;3.40;;;0.00;98.00;;;;;;5041683;28;20025;-67
2022/02/05 07:03:21;;;;;;;6.50;2.85;;;0.00;98.00;;;;;;5046691;28;20416;-68
2022/02/05 07:05:51;;;;;;;9.13;3.45;;;0.10;98.00;;;;;;5038979;28;20029;-67
2022/02/05 07:08:16;;;;;;;9.40;3.55;;;0.10;98.00;;;;;;5046268;28;20354;-67
2022/02/05 07:10:47;;;;;;;10.70;4.03;;;0.10;98.00;;;;;;5052579;28;20029;-67
2022/02/05 07:13:18;;;;;;;11.43;4.32;;;0.20;98.00;;;;;;5043347;28;20030;-70
2022/02/05 07:15:56;;;;;;;7.57;3.30;;;0.20;98.00;;;;;;5052390;28;20103;-67
2022/02/05 07:18:32;;;;;;;6.60;3.90;;;0.20;98.00;;;;;;5042268;28;20112;-67
2022/02/05 07:23:43;;;;;;;9.45;4.00;;;0.10;98.00;;;;;;5042178;28;20036;-67
2022/02/05 07:31:56;;;;;;;8.93;4.65;;;0.50;98.00;;;;;;5025110;28;20026;-66
2022/02/05 07:34:25;;;;;;;10.48;3.17;;;0.60;98.00;;;;;;5039950;28;20038;-67
2022/02/05 07:36:51;;;;;;;10.40;3.25;;;0.60;98.00;;;;;;5039639;28;20026;-66
2022/02/05 07:39:18;;;;;;;6.22;2.70;;;0.60;98.00;;;;;;5036807;28;20024;-67
2022/02/05 07:41:46;;;;;;;8.05;3.83;;;0.50;98.00;;;;;;5042519;28;20082;-68
2022/02/05 07:44:15;;;;;;;7.32;3.58;;;0.50;98.00;;;;;;5048646;28;20021;-67
2022/02/05 07:46:44;;;;;;;11.90;4.90;;;0.50;98.00;;;;;;5046373;28;20317;-66
2022/02/05 07:49:14;;;;;;;12.85;3.10;;;0.60;98.00;;;;;;5037704;28;20717;-66
2022/02/05 07:51:40;;;;;;;5.82;2.50;;;0.60;98.00;;;;;;5042275;28;20033;-67
2022/02/05 07:54:13;;;;;;;6.57;2.47;;;0.60;98.00;;;;;;5043820;28;20033;-66
2022/02/05 07:56:47;;;;;;;7.55;2.40;;;0.70;98.00;;;;;;5035408;28;20025;-66
2022/02/05 07:59:14;;;;;;;7.20;3.35;;;0.80;98.00;;;;;;5048945;28;20425;-65
2022/02/05 08:01:40;;;;;;;9.38;3.92;;;1.00;97.80;;;;;;5039081;28;20327;-66
2022/02/05 08:04:06;;;;;;;8.63;3.13;;;1.10;97.40;;;;;;5039298;28;20037;-65
2022/02/05 08:06:34;;;;;;;10.32;3.10;;;1.10;97.50;;;;;;5042781;28;20036;-65
2022/02/05 08:09:04;;;;;;;8.82;3.15;;;1.20;97.20;;;;;;5034431;28;20038;-69
2022/02/05 08:11:38;;;;;;;9.52;4.32;;;1.20;96.90;;;;;;5043320;28;20483;-67
2022/02/05 08:14:09;;;;;;;7.90;2.58;;;1.20;96.50;;;;;;5045543;28;20025;-67
2022/02/05 08:19:10;;;;;;;7.47;2.58;;;1.60;95.60;;;;;;5045878;28;20078;-67
2022/02/05 08:21:36;;;;;;;6.90;2.13;;;2.20;93.70;;;;;;5048887;28;20104;-67
2022/02/05 08:24:02;;;;;;;9.32;2.58;;;2.70;91.90;;;;;;5054852;28;20100;-69
2022/02/05 08:26:29;;;;;;;7.45;2.58;;;2.60;91.50;;;;;;5045285;28;20056;-65
2022/02/05 08:28:55;;;;;;;8.75;2.20;;;2.30;92.10;;;;;;5050606;28;20013;-67
2022/02/05 08:31:22;;;;;;;4.63;2.10;;;2.20;92.70;;;;;;5043954;28;20079;-66
2022/02/05 08:33:48;;;;;;;7.88;2.30;;;2.00;93.20;;;;;;5049334;28;20022;-67
2022/02/05 08:36:14;;;;;;;7.78;2.25;;;2.00;93.20;;;;;;5053255;28;20017;-67
2022/02/05 08:38:39;;;;;;;10.30;3.28;;;2.00;93.40;;;;;;5050084;28;20025;-67
2022/02/05 08:41:05;;;;;;;9.93;2.95;;;2.00;93.30;;;;;;5042048;28;20078;-66
2022/02/05 08:43:31;;;;;;;8.15;2.40;;;2.00;93.10;;;;;;5048262;28;20370;-68
2022/02/05 08:46:00;;;;;;;7.75;3.25;;;2.00;93.20;;;;;;5044816;28;20021;-66
2022/02/05 08:48:26;;;;;;;10.95;2.67;;;2.30;92.80;;;;;;5051691;28;20355;-65
2022/02/05 08:50:55;;;;;;;6.88;2.60;;;2.40;91.80;;;;;;5052003;28;20063;-67
2022/02/05 08:53:21;;;;;;;6.35;2.42;;;2.90;91.60;;;;;;5041216;28;20029;-67
2022/02/05 08:55:49;;;;;;;7.35;2.22;;;3.90;88.40;;;;;;5055583;28;20440;-67
2022/02/05 08:58:15;;;;;;;4.45;1.90;;;4.50;86.60;;;;;;5043548;28;20025;-67
2022/02/05 09:00:49;;;;;;;5.43;2.15;;;5.00;84.70;;;;;;5043222;28;20053;-67
2022/02/05 09:03:31;;;;;;;7.85;2.40;;;5.40;83.00;;;;;;5043864;28;20437;-67
2022/02/05 09:05:56;;;;;;;5.40;1.38;;;5.50;82.70;;;;;;5050430;28;20669;-67
2022/02/05 09:08:30;;;;;;;8.25;1.70;;;6.50;81.10;;;;;;5042377;28;20109;-67
2022/02/05 09:11:12;;;;;;;5.43;1.70;;;7.30;78.20;;;;;;5044600;28;20043;-67
2022/02/05 09:16:05;;;;;;;4.68;1.85;;;6.30;78.20;;;;;;5050451;28;20025;-67
2022/02/05 09:18:31;;;;;;;9.85;2.33;;;5.90;79.80;;;;;;5049566;28;20028;-67
2022/02/05 09:20:57;;;;;;;8.70;3.10;;;6.00;80.30;;;;;;5039647;28;20102;-68
2022/02/05 09:23:23;;;;;;;7.43;2.00;;;6.70;79.80;;;;;;5047809;28;20064;-68
2022/02/05 09:25:49;;;;;;;6.05;1.70;;;7.50;77.30;;;;;;5040838;28;20053;-68
2022/02/05 09:28:15;;;;;;;7.20;2.20;;;7.30;76.30;;;;;;5038792;28;20040;-68
2022/02/05 09:30:49;;;;;;;5.75;1.77;;;7.30;77.80;;;;;;5048528;28;20329;-68
2022/02/05 09:33:14;;;;;;;6.70;2.15;;;7.40;76.20;;;;;;5045061;28;20065;-67
2022/02/05 09:35:40;;;;;;;7.95;2.20;;;7.00;77.00;;;;;;5046615;28;20114;-68
2022/02/05 09:38:06;;;;;;;8.25;2.63;;;7.40;77.80;;;;;;5039954;28;20036;-67
2022/02/05 09:40:32;;;;;;;7.18;2.60;;;7.20;75.90;;;;;;5038516;28;20025;-67
2022/02/05 09:42:59;;;;;;;5.93;2.10;;;6.70;77.90;;;;;;5050337;28;20029;-67
2022/02/05 09:45:25;;;;;;;6.28;1.70;;;7.20;76.60;;;;;;5056411;28;20124;-68
2022/02/05 09:47:52;;;;;;;5.82;1.77;;;7.30;77.00;;;;;;5053175;28;20116;-68
2022/02/05 09:50:20;;;;;;;6.80;1.90;;;7.30;76.40;;;;;;5051719;28;20031;-67
2022/02/05 09:52:51;;;;;;;7.15;2.30;;;6.90;77.60;;;;;;5046354;28;20088;-67
2022/02/05 09:55:17;;;;;;;8.95;2.30;;;7.30;76.90;;;;;;5038149;28;20024;-68
2022/02/05 09:57:42;;;;;;;5.80;2.08;;;7.30;75.90;;;;;;5037172;28;20026;-67
2022/02/05 10:00:17;;;;;;;6.93;2.05;;;6.90;76.90;;;;;;5043339;28;20016;-68
2022/02/05 10:02:42;;;;;;;8.98;2.17;;;6.40;78.40;;;;;;5044781;28;20029;-67
2022/02/05 10:05:15;;;;;;;8.43;2.50;;;5.90;80.00;;;;;;5045552;28;20025;-67
2022/02/05 10:08:01;;;;;;;10.35;2.60;;;5.60;81.80;;;;;;5035820;28;20037;-68
2022/02/05 10:10:51;;;;;;;8.05;2.70;;;5.90;80.60;;;;;;5042070;28;20033;-68
2022/02/05 10:13:19;;;;;;;8.13;2.47;;;5.30;82.20;;;;;;5036524;28;20359;-68
2022/02/05 10:15:51;;;;;;;7.22;2.17;;;5.80;82.10;;;;;;5045512;28;20025;-68
2022/02/05 10:18:28;;;;;;;6.82;2.47;;;5.90;82.50;;;;;;5036535;28;20060;-68
2022/02/05 10:20:56;;;;;;;7.63;2.70;;;6.70;80.40;;;;;;5042423;28;20021;-68
2022/02/05 10:23:21;;;;;;;12.90;3.03;;;6.70;79.30;;;;;;5037363;28;20026;-68
2022/02/05 10:25:49;;;;;;;7.07;2.50;;;7.10;78.50;;;;;;5039694;28;20059;-68
2022/02/05 10:28:16;;;;;;;13.02;2.75;;;7.10;78.00;;;;;;5056262;28;20079;-68
2022/02/05 10:30:47;;;;;;;6.30;2.65;;;7.10;77.80;;;;;;5055386;28;20373;-68
2022/02/05 10:33:32;;;;;;;8.80;2.95;;;7.10;78.20;;;;;;5054984;28;20024;-68
2022/02/05 10:38:49;;;;;;;11.63;3.40;;;6.80;78.90;;;;;;5037087;28;20288;-67
2022/02/05 10:44:20;;;;;;;12.52;4.18;;;7.50;77.00;;;;;;5038474;28;20484;-68
2022/02/05 10:46:52;;;;;;;7.80;2.30;;;7.80;76.60;;;;;;5045374;28;20047;-68
2022/02/05 10:49:48;;;;;;;6.10;1.63;;;7.80;75.90;;;;;;5040504;28;20369;-67
2022/02/05 10:52:34;;;;;;;10.63;2.38;;;7.30;77.10;;;;;;5037710;28;20032;-67
2022/02/05 10:58:18;;;;;;;13.27;4.07;;;7.30;76.90;;;;;;5043067;28;20033;-67
2022/02/05 11:07:58;;;;;;;13.48;3.10;;;5.40;81.00;;;;;;5038827;28;20101;-68
2022/02/05 11:21:12;;;;;;;11.43;3.08;;;4.90;81.60;;;;;;5035968;28;20056;-68
2022/02/05 11:23:38;;;;;;;7.13;2.63;;;4.70;83.80;;;;;;5035562;28;20112;-67
2022/02/05 11:26:06;;;;;;;14.35;4.57;;;4.80;83.30;;;;;;5040579;28;20128;-67
2022/02/05 11:28:40;;;;;;;7.30;2.35;;;5.20;83.00;;;;;;5037627;28;20385;-67
2022/02/05 11:31:40;;;;;;;10.32;2.53;;;5.20;81.70;;;;;;5035670;28;20334;-67
2022/02/05 11:34:28;;;;;;;14.15;2.47;;;4.90;82.90;;;;;;5038538;28;20025;-67
2022/02/05 11:37:08;;;;;;;9.18;2.70;;;4.50;83.80;;;;;;5035574;28;20079;-68
2022/02/05 11:39:48;;;;;;;9.15;2.60;;;4.30;84.70;;;;;;5039031;28;20021;-67
2022/02/05 11:42:36;;;;;;;9.88;2.63;;;4.30;85.70;;;;;;5052191;28;20033;-67
2022/02/05 11:45:27;;;;;;;11.23;5.07;;;4.30;85.40;;;;;;5039930;28;20025;-67
2022/02/05 11:47:57;;;;;;;8.40;2.38;;;4.20;85.30;;;;;;5033052;28;20437;-67
2022/02/05 11:50:27;;;;;;;9.63;2.45;;;4.90;85.10;;;;;;5039712;28;20127;-67
2022/02/05 11:52:57;;;;;;;6.55;1.98;;;6.00;81.50;;;;;;5038917;28;20025;-68
2022/02/05 11:55:34;;;;;;;7.93;2.40;;;6.40;79.30;;;;;;5039185;28;20026;-68
2022/02/05 11:58:05;;;;;;;11.68;2.75;;;6.00;79.40;;;;;;5039352;28;20030;-67
2022/02/05 12:00:48;;;;;;;10.07;3.53;;;6.00;80.50;;;;;;5040158;28;20029;-67
2022/02/05 12:03:27;;;;;;;7.07;2.13;;;6.10;81.10;;;;;;5043798;28;20074;-67
2022/02/05 12:05:55;;;;;;;6.95;1.80;;;6.00;80.40;;;;;;5045374;28;20333;-67
2022/02/05 12:08:33;;;;;;;7.45;1.55;;;6.60;79.30;;;;;;5047723;28;20037;-68
2022/02/05 12:11:03;;;;;;;6.32;2.00;;;7.00;77.80;;;;;;5058037;28;20029;-67
2022/02/05 12:13:38;;;;;;;5.82;2.08;;;6.60;77.40;;;;;;5049195;28;20067;-66
2022/02/05 12:16:08;;;;;;;7.00;1.73;;;6.20;79.40;;;;;;5045670;28;20026;-67
2022/02/05 12:19:12;;;;;;;6.88;1.75;;;6.40;79.30;;;;;;5062062;28;20017;-67
2022/02/05 12:21:59;;;;;;;7.68;1.90;;;6.30;80.10;;;;;;5053029;28;20021;-68
2022/02/05 12:24:41;;;;;;;5.90;1.50;;;7.10;78.10;;;;;;5050674;28;20310;-68
2022/02/05 12:27:30;;;;;;;5.10;1.67;;;7.70;76.50;;;;;;5058688;28;20088;-68
2022/02/05 12:30:35;;;;;;;8.88;1.52;;;8.20;75.40;;;;;;5043021;28;20021;-68
2022/02/05 12:33:03;;;;;;;7.15;1.83;;;8.30;74.10;;;;;;5038024;28;20044;-67
2022/02/05 12:35:31;;;;;;;5.28;1.60;;;8.40;73.70;;;;;;5049533;28;20048;-66
2022/02/05 12:38:04;;;;;;;5.03;1.73;;;7.90;73.60;;;;;;5052503;28;20088;-68
2022/02/05 12:40:30;;;;;;;9.20;1.90;;;7.80;74.70;;;;;;5043291;28;20307;-68
2022/02/05 12:42:57;;;;;;;5.88;1.88;;;8.00;73.60;;;;;;5037499;28;20037;-68
2022/02/05 12:45:52;;;;;;;5.20;1.60;;;8.30;73.10;;;;;;5043485;28;20434;-68
2022/02/05 12:48:20;;;;;;;7.70;2.42;;;7.90;73.90;;;;;;5044850;28;20059;-68
2022/02/05 12:50:48;;;;;;;4.88;1.77;;;7.90;74.00;;;;;;5036452;28;20029;-67
2022/02/05 12:53:23;;;;;;;5.38;1.50;;;7.80;72.80;;;;;;5046757;28;20132;-66
2022/02/05 12:55:54;;;;;;;4.45;1.50;;;7.60;73.50;;;;;;5047628;28;20025;-67
2022/02/05 12:58:20;;;;;;;4.47;1.50;;;7.50;73.20;;;;;;5043507;28;20037;-67
2022/02/05 13:01:03;;;;;;;6.28;1.48;;;7.50;72.30;;;;;;5048608;28;20025;-68
2022/02/05 13:03:30;;;;;;;12.15;4.20;;;7.30;72.60;;;;;;5043002;28;20056;-67
2022/02/05 13:05:56;;;;;;;10.57;3.88;;;6.50;75.30;;;;;;5042320;28;20040;-68
2022/02/05 13:08:22;;;;;;;9.02;2.42;;;6.60;76.10;;;;;;5045583;28;20035;-68
2022/02/05 13:10:49;;;;;;;5.85;1.80;;;6.80;75.60;;;;;;5046063;28;20036;-68
2022/02/05 13:13:15;;;;;;;6.72;1.55;;;7.10;74.50;;;;;;5044009;28;20322;-68
2022/02/05 13:15:41;;;;;;;6.82;1.60;;;6.80;74.20;;;;;;5037417;28;20036;-68
2022/02/05 13:18:19;;;;;;;8.73;2.63;;;6.70;75.50;;;;;;5034894;28;20033;-68
2022/02/05 13:34:16;;;;;;;6.55;1.75;;;7.10;74.60;;;;;;5048664;28;20476;-68
2022/02/05 13:37:12;;;;;;;4.88;1.48;;;7.20;73.00;;;;;;5045281;28;20054;-67
2022/02/05 13:39:54;;;;;;;5.45;1.65;;;7.00;73.60;;;;;;5049730;28;20021;-67
2022/02/05 13:42:27;;;;;;;4.75;1.60;;;6.80;73.80;;;;;;5042602;28;20036;-67
2022/02/05 13:45:10;;;;;;;6.38;2.25;;;7.00;74.40;;;;;;5036669;28;20029;-68
2022/02/05 13:47:44;;;;;;;10.10;2.25;;;7.30;73.60;;;;;;5040728;28;20029;-67
2022/02/05 13:50:15;;;;;;;5.07;1.80;;;7.20;72.90;;;;;;5040455;28;20078;-67
2022/02/05 13:52:46;;;;;;;5.78;2.00;;;7.30;74.50;;;;;;5049249;28;20330;-66
2022/02/05 13:55:30;;;;;;;7.18;1.70;;;7.80;74.80;;;;;;5036726;28;20029;-67
2022/02/05 13:58:06;;;;;;;4.63;1.67;;;7.80;73.00;;;;;;5040397;28;20044;-68
2022/02/05 14:00:56;;;;;;;7.90;2.15;;;7.60;73.60;;;;;;5040166;28;20037;-69
2022/02/05 14:03:29;;;;;;;7.57;1.98;;;7.70;73.40;;;;;;5039554;28;20313;-67
2022/02/05 14:06:09;;;;;;;6.30;1.80;;;7.50;72.90;;;;;;5043682;28;20035;-68
2022/02/05 14:08:47;;;;;;;7.38;1.70;;;7.30;73.90;;;;;;5036669;28;20025;-68
2022/02/05 14:11:31;;;;;;;6.32;1.65;;;7.20;73.80;;;;;;5036950;28;20307;-68
2022/02/05 14:14:00;;;;;;;4.68;2.22;;;6.90;73.60;;;;;;5032978;28;20040;-69
2022/02/05 14:16:37;;;;;;;9.50;2.95;;;6.90;74.80;;;;;;5042432;28;20384;-67
2022/02/05 14:19:04;;;;;;;9.60;2.10;;;7.00;75.20;;;;;;5040072;28;20078;-68
2022/02/05 14:21:40;;;;;;;6.45;2.28;;;6.90;75.20;;;;;;5047765;28;20021;-68
2022/02/05 14:24:26;;;;;;;5.60;2.33;;;7.00;75.50;;;;;;5040901;28;20021;-68
2022/02/05 14:27:15;;;;;;;10.13;2.72;;;6.90;75.80;;;;;;5041164;28;20080;-67
2022/02/05 14:29:56;;;;;;;7.28;3.28;;;6.80;75.70;;;;;;5036871;28;20450;-68
2022/02/05 14:32:31;;;;;;;8.93;3.38;;;6.70;76.30;;;;;;5041415;28;20033;-67
2022/02/05 14:40:29;;;;;;;;;;;6.00;78.20;;;;;;5037235;28;20036;-67
2022/02/05 14:42:54;;;;;;;8.25;3.08;;;6.20;78.10;;;;;;5040390;28;19913;-66
2022/02/05 14:45:21;;;;;;;12.70;5.25;;;6.10;77.60;;;;;;5044532;28;20031;-67
2022/02/05 14:47:49;;;;;;;11.52;4.68;;;5.90;78.20;;;;;;5040927;28;20075;-66
2022/02/05 14:50:16;;;;;;;13.88;3.47;;;6.00;78.40;;;;;;5046342;28;20322;-67
2022/02/05 14:52:42;;;;;;;9.55;3.38;;;6.10;77.40;;;;;;5045013;28;20611;-67
2022/02/05 14:55:08;;;;;;;9.48;3.33;;;6.20;77.50;;;;;;5041089;28;20108;-67
2022/02/05 14:57:34;;;;;;;6.88;3.03;;;6.20;76.90;;;;;;5036746;28;20021;-67
2022/02/05 15:00:03;;;;;;;6.70;2.67;;;6.40;77.20;;;;;;5041322;28;20037;-67
2022/02/05 15:02:29;;;;;;;7.88;2.55;;;6.30;77.30;;;;;;5046197;28;20086;-66
2022/02/05 15:04:55;;;;;;;11.68;3.72;;;6.30;77.90;;;;;;5047460;28;20025;-67
2022/02/05 15:07:21;;;;;;;10.82;3.90;;;6.40;77.80;;;;;;5043252;28;20381;-67
2022/02/05 15:09:47;;;;;;;8.75;2.97;;;6.60;77.50;;;;;;5041809;28;20322;-68
2022/02/05 15:12:13;;;;;;;7.93;2.47;;;6.60;77.60;;;;;;5062216;28;20496;-67
2022/02/05 15:14:39;;;;;;;10.68;3.83;;;6.50;76.80;;;;;;5060445;28;20025;-67
2022/02/05 15:17:05;;;;;;;12.13;3.65;;;6.50;77.50;;;;;;5054719;28;20112;-67
2022/02/05 15:19:31;;;;;;;7.32;2.15;;;6.50;77.40;;;;;;5048463;28;20131;-67
2022/02/05 15:21:57;;;;;;;6.13;2.20;;;6.50;77.20;;;;;;5051361;28;20045;-67
2022/02/05 15:24:26;;;;;;;6.00;2.58;;;6.50;77.60;;;;;;5049091;28;20017;-66
2022/02/05 15:26:54;;;;;;;9.35;2.83;;;6.40;77.40;;;;;;5036744;28;20426;-68
2022/02/05 15:29:20;;;;;;;10.55;2.60;;;6.40;77.70;;;;;;5048903;28;20064;-67
2022/02/05 15:31:48;;;;;;;7.35;2.90;;;6.10;77.70;;;;;;5057061;28;20048;-67
2022/02/05 15:34:17;;;;;;;8.20;2.60;;;6.00;78.40;;;;;;5046549;28;20120;-67
2022/02/05 15:36:52;;;;;;;6.80;2.58;;;5.90;78.50;;;;;;5048118;28;20041;-67
2022/02/05 15:45:00;;;;;;;10.52;3.50;;;6.10;79.20;;;;;;5047854;28;20043;-66
2022/02/05 15:47:40;;;;;;;10.07;3.80;;;6.10;79.20;;;;;;5059408;28;20029;-67
2022/02/05 15:50:11;;;;;;;11.15;4.03;;;6.00;79.40;;;;;;5055215;28;20060;-68
2022/02/05 15:52:37;;;;;;;12.13;4.13;;;5.90;79.80;;;;;;5056777;28;20028;-68
2022/02/05 15:55:06;;;;;;;11.00;3.90;;;5.70;80.00;;;;;;5056481;28;20021;-68
2022/02/05 15:57:47;;;;;;;10.40;3.30;;;5.50;80.90;;;;;;5050858;28;20024;-68
2022/02/05 16:00:27;;;;;;;8.52;3.08;;;5.50;81.10;;;;;;5052849;28;20034;-68
2022/02/05 16:02:53;;;;;;;8.98;3.13;;;5.60;81.10;;;;;;5048224;28;20045;-68